Time;durP1;ratioP1;P1;durP2;ratioP2;P2;SDS_P1;SDS_P2;PMS_P1;PMS_P2;Temp;Humidity;BMP_temperature;BMP_pressure;BME280_temperature;BME280_humidity;BME280_pressure;Samples;Min_cycle;Max_cycle;Signal;HPM_P1;HPM_P2
2022/04/26 03:36:13;;;;;;;4.95;2.38;;;13.20;88.50;;;;;;5064690;28;20109;-60
2022/04/26 03:38:43;;;;;;;2.50;1.90;;;13.20;88.50;;;;;;5063636;28;20044;-61
2022/04/26 03:41:09;;;;;;;3.00;2.05;;;13.20;88.60;;;;;;5045832;28;20167;-60
2022/04/26 03:43:34;;;;;;;1.98;1.80;;;13.20;88.60;;;;;;5063408;28;20147;-60
2022/04/26 03:46:00;;;;;;;2.55;1.95;;;13.20;88.50;;;;;;5043844;28;20025;-60
2022/04/26 03:48:25;;;;;;;6.07;2.03;;;13.20;88.40;;;;;;5062964;28;20048;-60
2022/04/26 03:50:51;;;;;;;2.58;1.90;;;13.20;88.20;;;;;;5051646;28;20107;-60
2022/04/26 03:53:16;;;;;;;2.00;1.77;;;13.20;88.30;;;;;;5064255;28;20039;-60
2022/04/26 03:55:42;;;;;;;2.63;2.03;;;13.20;88.40;;;;;;5063563;28;20028;-60
2022/04/26 03:58:07;;;;;;;1.70;1.60;;;13.20;89.20;;;;;;5061865;28;20033;-60
2022/04/26 04:00:33;;;;;;;2.00;1.77;;;13.10;88.50;;;;;;5063416;28;20171;-60
2022/04/26 04:02:58;;;;;;;1.70;1.60;;;13.20;88.40;;;;;;5082808;28;20387;-60
2022/04/26 04:05:24;;;;;;;1.92;1.70;;;13.10;88.40;;;;;;5081473;28;20135;-60
2022/04/26 04:07:49;;;;;;;2.80;2.00;;;13.20;88.40;;;;;;5049311;28;20024;-60
2022/04/26 04:10:15;;;;;;;2.03;1.58;;;13.10;88.30;;;;;;5064111;28;20051;-60
2022/04/26 04:12:40;;;;;;;4.15;1.65;;;13.20;88.40;;;;;;5050627;28;20020;-60
2022/04/26 04:15:07;;;;;;;1.60;1.50;;;13.10;88.30;;;;;;5064592;28;20039;-60
2022/04/26 04:17:32;;;;;;;3.00;1.77;;;13.10;88.20;;;;;;5063994;28;20036;-59
2022/04/26 04:19:58;;;;;;;2.20;1.60;;;13.10;88.20;;;;;;5082774;28;20020;-60
2022/04/26 04:22:23;;;;;;;1.80;1.48;;;13.10;88.30;;;;;;5082547;28;20569;-60
2022/04/26 04:24:49;;;;;;;2.55;1.73;;;13.10;88.30;;;;;;5064820;28;20032;-61
2022/04/26 04:27:14;;;;;;;2.13;1.40;;;13.10;88.30;;;;;;5080860;28;20035;-60
2022/04/26 04:29:40;;;;;;;2.00;1.75;;;13.00;88.10;;;;;;5079231;28;20020;-60
2022/04/26 04:32:06;;;;;;;1.70;1.60;;;13.10;88.20;;;;;;5063166;28;20056;-60
2022/04/26 04:34:31;;;;;;;1.70;1.60;;;13.10;88.20;;;;;;5063364;28;20428;-61
2022/04/26 04:36:57;;;;;;;2.05;1.70;;;13.00;88.20;;;;;;5080808;28;20043;-60
2022/04/26 04:39:23;;;;;;;2.38;1.60;;;13.10;88.40;;;;;;5072062;28;20071;-59
2022/04/26 04:41:49;;;;;;;1.70;1.60;;;13.10;88.40;;;;;;5080211;28;20061;-60
2022/04/26 04:44:15;;;;;;;1.52;1.42;;;13.00;88.30;;;;;;5046093;28;20055;-60
2022/04/26 04:46:40;;;;;;;1.50;1.40;;;13.10;88.30;;;;;;5082347;28;20028;-59
2022/04/26 04:49:06;;;;;;;3.35;1.73;;;13.00;88.30;;;;;;5062465;28;20040;-60
2022/04/26 04:51:31;;;;;;;1.95;1.55;;;13.10;88.30;;;;;;5083577;28;20040;-60
2022/04/26 04:53:57;;;;;;;3.30;1.40;;;13.10;88.20;;;;;;5063460;28;20040;-60
2022/04/26 04:56:26;;;;;;;3.72;1.70;;;13.10;88.30;;;;;;5064128;28;20185;-60
2022/04/26 04:58:52;;;;;;;2.10;1.50;;;13.00;88.20;;;;;;5065021;28;20031;-60
2022/04/26 05:01:18;;;;;;;2.65;1.70;;;13.00;88.30;;;;;;5063520;28;20044;-60
2022/04/26 05:03:43;;;;;;;1.70;1.60;;;13.00;88.30;;;;;;5082953;28;20460;-60
2022/04/26 05:06:11;;;;;;;1.75;1.63;;;13.10;88.40;;;;;;5080546;28;20466;-60
2022/04/26 05:08:36;;;;;;;1.70;1.60;;;13.00;88.30;;;;;;5082707;28;20354;-60
2022/04/26 05:11:02;;;;;;;3.42;1.50;;;13.00;88.40;;;;;;5058092;28;20347;-60
2022/04/26 05:13:27;;;;;;;1.60;1.50;;;13.00;88.40;;;;;;5078491;28;20073;-59
2022/04/26 05:15:53;;;;;;;2.00;1.58;;;13.00;88.50;;;;;;5081347;28;20107;-59
2022/04/26 05:18:18;;;;;;;3.35;1.60;;;13.00;88.50;;;;;;5062498;28;20106;-60
2022/04/26 05:20:44;;;;;;;1.58;1.48;;;13.00;88.40;;;;;;5083276;28;20024;-61
2022/04/26 05:25:54;;;;;;;1.85;1.67;;;13.00;88.60;;;;;;5075135;28;21057;-60
2022/04/26 05:28:19;;;;;;;2.00;1.80;;;13.00;88.40;;;;;;5080308;28;20428;-59
2022/04/26 05:30:45;;;;;;;3.08;1.60;;;12.90;88.60;;;;;;5080095;28;20438;-60
2022/04/26 05:33:10;;;;;;;1.55;1.45;;;13.00;88.70;;;;;;5080712;28;20067;-60
2022/04/26 05:35:36;;;;;;;1.70;1.60;;;12.90;88.80;;;;;;5081199;28;20034;-60
2022/04/26 05:38:01;;;;;;;2.00;1.80;;;12.90;89.00;;;;;;5076785;28;20147;-59
2022/04/26 05:40:26;;;;;;;3.83;2.47;;;12.90;89.00;;;;;;5077960;28;20056;-60
2022/04/26 05:42:52;;;;;;;2.97;2.50;;;12.90;89.10;;;;;;5057173;28;20131;-60
2022/04/26 05:45:18;;;;;;;3.22;2.45;;;12.90;89.20;;;;;;5061568;28;20028;-61
2022/04/26 05:47:44;;;;;;;4.03;2.75;;;12.90;89.30;;;;;;5062270;28;20231;-60
2022/04/26 05:50:10;;;;;;;4.60;3.40;;;12.80;89.90;;;;;;5063940;28;20656;-59
2022/04/26 05:52:36;;;;;;;5.10;2.80;;;12.80;89.30;;;;;;5061157;28;20172;-60
2022/04/26 05:55:04;;;;;;;4.60;3.67;;;12.80;89.20;;;;;;5048649;28;20387;-61
2022/04/26 05:57:30;;;;;;;4.65;3.90;;;12.90;89.30;;;;;;5048537;28;20028;-59
2022/04/26 05:59:55;;;;;;;4.05;3.53;;;12.80;89.30;;;;;;5063263;28;20173;-60
2022/04/26 06:02:21;;;;;;;9.02;3.70;;;12.80;89.40;;;;;;5076034;28;20128;-60
2022/04/26 06:04:46;;;;;;;4.82;3.58;;;12.80;89.50;;;;;;5068195;28;20024;-60
2022/04/26 06:07:12;;;;;;;9.30;4.53;;;12.80;89.40;;;;;;5047335;28;20444;-61
2022/04/26 06:09:38;;;;;;;19.98;4.50;;;12.80;89.50;;;;;;5049111;28;20028;-60
2022/04/26 06:12:04;;;;;;;33.92;6.35;;;12.80;89.40;;;;;;5063383;28;20471;-60
2022/04/26 06:14:30;;;;;;;42.10;6.75;;;12.80;89.40;;;;;;5042227;28;20025;-60
2022/04/26 06:16:55;;;;;;;16.55;5.55;;;12.80;89.50;;;;;;5046579;28;20484;-60
2022/04/26 06:19:21;;;;;;;12.13;4.50;;;12.80;89.50;;;;;;5067829;28;20048;-60
2022/04/26 06:21:46;;;;;;;10.18;3.97;;;12.80;89.50;;;;;;5049699;28;20112;-61
2022/04/26 06:24:12;;;;;;;13.25;5.00;;;12.80;89.50;;;;;;5047803;28;20340;-60
2022/04/26 06:26:37;;;;;;;13.85;5.18;;;12.80;89.50;;;;;;5048937;28;20028;-60
2022/04/26 06:29:03;;;;;;;19.90;4.85;;;12.70;89.30;;;;;;5066894;28;20108;-60
2022/04/26 06:31:28;;;;;;;25.98;5.50;;;12.70;89.10;;;;;;5058351;28;20107;-60
2022/04/26 06:33:54;;;;;;;22.50;6.70;;;12.80;89.20;;;;;;5029174;28;20488;-59
2022/04/26 06:36:20;;;;;;;46.35;6.85;;;12.80;89.10;;;;;;5046320;28;20052;-60
2022/04/26 06:38:45;;;;;;;41.03;7.72;;;12.80;89.10;;;;;;5071913;28;20088;-61
2022/04/26 06:41:11;;;;;;;30.55;7.45;;;12.80;89.10;;;;;;5072022;28;20186;-60
2022/04/26 06:43:36;;;;;;;31.73;6.38;;;12.80;89.00;;;;;;5069325;28;20177;-60
2022/04/26 06:46:02;;;;;;;39.60;6.32;;;12.80;89.00;;;;;;5068324;28;20480;-59
2022/04/26 06:48:27;;;;;;;32.10;6.32;;;12.80;88.90;;;;;;5046588;28;20040;-60
2022/04/26 06:50:56;;;;;;;36.28;6.85;;;12.80;88.90;;;;;;5070405;28;20028;-60
2022/04/26 06:53:22;;;;;;;23.30;5.90;;;12.80;88.80;;;;;;5045449;28;20100;-60
2022/04/26 06:55:48;;;;;;;37.67;6.88;;;12.80;88.80;;;;;;5064516;28;20131;-60
2022/04/26 06:58:13;;;;;;;31.25;7.57;;;12.80;88.80;;;;;;5048249;28;20121;-60
2022/04/26 07:00:39;;;;;;;40.60;8.07;;;12.80;88.80;;;;;;5044579;28;20056;-60
2022/04/26 07:03:04;;;;;;;52.25;10.00;;;12.80;88.90;;;;;;5080671;28;20096;-60
2022/04/26 07:05:30;;;;;;;65.78;13.00;;;12.80;88.80;;;;;;5082555;28;20067;-60
2022/04/26 07:07:56;;;;;;;60.17;14.73;;;12.80;88.70;;;;;;5047794;28;20036;-60
2022/04/26 07:10:22;;;;;;;55.35;13.70;;;12.70;88.70;;;;;;5082082;28;20028;-59
2022/04/26 07:12:47;;;;;;;76.18;13.85;;;12.70;88.60;;;;;;5061783;28;20163;-61
2022/04/26 07:15:13;;;;;;;83.03;14.52;;;12.80;88.70;;;;;;5048250;28;20147;-60
2022/04/26 07:17:40;;;;;;;72.30;13.90;;;12.80;88.80;;;;;;5064125;28;20032;-60
2022/04/26 07:20:06;;;;;;;60.80;12.60;;;12.70;88.80;;;;;;5068506;28;20278;-60
2022/04/26 07:22:32;;;;;;;72.40;14.13;;;12.70;88.80;;;;;;5045840;28;20038;-60
2022/04/26 07:24:57;;;;;;;75.80;14.00;;;12.70;88.70;;;;;;5082313;28;20028;-60
2022/04/26 07:27:23;;;;;;;66.05;13.35;;;12.70;88.80;;;;;;5062998;28;20115;-60
2022/04/26 07:29:49;;;;;;;69.13;14.07;;;12.70;88.60;;;;;;5057757;28;20455;-60
2022/04/26 07:32:15;;;;;;;58.67;14.65;;;12.70;88.80;;;;;;5046796;28;20043;-60
2022/04/26 07:34:40;;;;;;;71.40;13.13;;;12.70;89.00;;;;;;5060180;28;20032;-61
2022/04/26 07:37:06;;;;;;;43.85;12.77;;;12.70;89.00;;;;;;5064591;28;20696;-60
2022/04/26 07:39:36;;;;;;;57.72;12.93;;;12.70;89.00;;;;;;5057284;28;20043;-60
2022/04/26 07:42:02;;;;;;;56.97;11.98;;;12.70;89.10;;;;;;5048751;28;20137;-60
2022/04/26 07:44:29;;;;;;;63.00;11.10;;;12.70;89.20;;;;;;5044092;28;20020;-59
2022/04/26 07:46:54;;;;;;;56.80;11.60;;;12.70;89.20;;;;;;5040527;28;20093;-61
2022/04/26 07:49:21;;;;;;;70.05;13.82;;;12.70;89.10;;;;;;5064580;28;20402;-61
2022/04/26 07:51:47;;;;;;;57.15;12.82;;;12.70;89.10;;;;;;5060965;28;20584;-59
2022/04/26 07:54:12;;;;;;;45.58;11.07;;;12.70;89.10;;;;;;5057734;28;20059;-60
2022/04/26 07:56:38;;;;;;;76.20;14.63;;;12.70;88.90;;;;;;5063223;28;20033;-60
2022/04/26 07:59:04;;;;;;;53.72;11.90;;;12.70;88.90;;;;;;5082595;28;20020;-61
2022/04/26 08:01:30;;;;;;;65.05;11.98;;;12.60;88.70;;;;;;5060216;28;20036;-61
2022/04/26 08:03:56;;;;;;;64.32;13.48;;;12.60;88.60;;;;;;5075823;28;20562;-60
2022/04/26 08:06:22;;;;;;;65.05;13.57;;;12.70;88.60;;;;;;5056847;28;20035;-60
2022/04/26 08:08:47;;;;;;;63.55;12.80;;;12.70;88.60;;;;;;5075592;28;20097;-60
2022/04/26 08:11:13;;;;;;;63.00;13.93;;;12.70;88.40;;;;;;5067471;28;20036;-61
2022/04/26 08:13:41;;;;;;;70.30;13.30;;;12.70;88.30;;;;;;5078961;28;20089;-60
2022/04/26 08:16:07;;;;;;;57.17;13.75;;;12.80;88.10;;;;;;5040675;28;20694;-60
2022/04/26 08:18:33;;;;;;;53.38;12.38;;;12.80;88.10;;;;;;5078893;28;20039;-60
2022/04/26 08:20:59;;;;;;;45.15;11.88;;;12.80;88.00;;;;;;5057791;28;20031;-60
2022/04/26 08:23:24;;;;;;;52.03;12.65;;;12.80;87.80;;;;;;5076941;28;20557;-60
2022/04/26 08:28:34;;;;;;;48.25;13.23;;;12.80;87.50;;;;;;5072511;28;20085;-60
2022/04/26 08:31:00;;;;;;;59.47;12.98;;;12.80;87.50;;;;;;5075690;28;20028;-60
2022/04/26 08:33:26;;;;;;;55.72;12.48;;;12.80;87.50;;;;;;5056974;28;20195;-60
2022/04/26 08:35:52;;;;;;;66.68;15.32;;;12.80;87.40;;;;;;5072521;28;20028;-60
2022/04/26 08:38:17;;;;;;;69.95;17.70;;;12.60;87.40;;;;;;5074293;28;20040;-60
2022/04/26 08:40:43;;;;;;;78.40;19.77;;;12.80;87.50;;;;;;5058091;28;20158;-60
2022/04/26 08:43:09;;;;;;;105.82;24.92;;;12.80;87.60;;;;;;5062256;28;20051;-60
2022/04/26 08:45:34;;;;;;;86.97;23.58;;;12.80;87.60;;;;;;5050269;28;20031;-59
2022/04/26 08:53:28;;;;;;;79.60;21.17;;;12.80;87.50;;;;;;5079381;28;20035;-60
2022/04/26 08:55:55;;;;;;;100.25;18.73;;;12.80;87.30;;;;;;5053027;28;20036;-60
2022/04/26 08:58:22;;;;;;;87.18;18.45;;;12.80;87.20;;;;;;5056914;28;20112;-60
2022/04/26 09:01:14;;;;;;;56.33;18.60;;;12.80;87.20;;;;;;5073304;28;20024;-61
2022/04/26 09:03:40;;;;;;;67.03;21.20;;;12.90;87.20;;;;;;5055527;28;20366;-61
2022/04/26 09:06:07;;;;;;;94.78;21.00;;;12.80;87.00;;;;;;5054658;28;20056;-62
2022/04/26 09:08:36;;;;;;;80.28;22.60;;;12.90;87.00;;;;;;5074433;28;20118;-61
2022/04/26 09:11:03;;;;;;;79.93;22.13;;;12.90;87.20;;;;;;5050465;28;20043;-59
2022/04/26 09:13:33;;;;;;;77.80;22.33;;;12.80;87.20;;;;;;5055868;28;21314;-60
2022/04/26 09:15:59;;;;;;;68.60;18.88;;;12.80;87.10;;;;;;5023853;28;20028;-60
2022/04/26 09:18:30;;;;;;;81.13;19.30;;;12.80;87.00;;;;;;5057130;28;20034;-60
2022/04/26 09:21:16;;;;;;;84.68;21.98;;;12.80;87.00;;;;;;5025444;28;20509;-60
2022/04/26 09:23:42;;;;;;;99.40;25.35;;;12.80;87.00;;;;;;5077716;28;20031;-60
2022/04/26 09:26:08;;;;;;;82.68;21.70;;;12.80;87.00;;;;;;5055970;28;20055;-60
2022/04/26 09:28:35;;;;;;;107.40;25.13;;;12.80;87.10;;;;;;5077193;28;20462;-61
2022/04/26 09:31:00;;;;;;;71.68;20.90;;;12.90;87.20;;;;;;5036483;28;20036;-60
2022/04/26 09:33:38;;;;;;;63.03;17.75;;;12.90;87.00;;;;;;5055776;28;20031;-60
2022/04/26 09:36:11;;;;;;;63.75;15.13;;;12.90;86.80;;;;;;5073914;28;20507;-61
2022/04/26 09:38:37;;;;;;;49.42;13.15;;;13.00;86.70;;;;;;5040260;28;20058;-60
2022/04/26 09:41:04;;;;;;;53.88;13.60;;;13.00;86.50;;;;;;5052243;28;20054;-61
2022/04/26 09:43:30;;;;;;;37.08;12.90;;;13.00;86.30;;;;;;5062348;28;20150;-60
2022/04/26 09:45:56;;;;;;;69.97;17.45;;;13.00;86.20;;;;;;5070139;28;20101;-60
2022/04/26 09:48:35;;;;;;;89.65;20.83;;;13.00;86.20;;;;;;5051250;28;20131;-60
2022/04/26 09:51:04;;;;;;;111.07;25.65;;;13.20;86.30;;;;;;5054220;28;20032;-61
2022/04/26 09:53:29;;;;;;;96.68;24.17;;;13.00;86.10;;;;;;5041018;28;20020;-60
2022/04/26 09:55:56;;;;;;;99.32;26.98;;;13.10;86.30;;;;;;5073169;28;20012;-61
2022/04/26 09:58:22;;;;;;;80.88;21.17;;;13.10;86.20;;;;;;5071404;28;20858;-60
2022/04/26 10:00:49;;;;;;;74.35;21.17;;;13.10;86.10;;;;;;5052239;28;20036;-59
2022/04/26 10:03:16;;;;;;;106.53;26.27;;;13.10;86.10;;;;;;5053593;28;20040;-60
2022/04/26 10:05:42;;;;;;;87.93;23.52;;;13.20;86.20;;;;;;5075025;28;20068;-61
2022/04/26 10:08:08;;;;;;;94.53;22.77;;;13.20;86.10;;;;;;5054517;28;20032;-60
2022/04/26 10:10:34;;;;;;;91.15;22.55;;;13.20;86.70;;;;;;5038107;28;20612;-60
2022/04/26 10:15:44;;;;;;;78.68;21.73;;;13.30;85.80;;;;;;5052355;28;20391;-60
2022/04/26 10:18:34;;;;;;;75.97;20.88;;;13.40;85.80;;;;;;5054572;28;20032;-60
2022/04/26 10:21:00;;;;;;;78.35;20.13;;;13.40;85.70;;;;;;5029444;28;20047;-61
2022/04/26 10:23:26;;;;;;;83.75;19.25;;;13.40;85.50;;;;;;5053027;28;20864;-60
2022/04/26 10:26:22;;;;;;;75.47;19.80;;;13.40;85.20;;;;;;5042660;28;20045;-60
2022/04/26 10:28:52;;;;;;;68.72;18.45;;;13.50;85.20;;;;;;5076010;28;20032;-60
2022/04/26 10:31:18;;;;;;;62.05;15.23;;;13.50;85.00;;;;;;5065908;28;20101;-60
2022/04/26 10:33:45;;;;;;;63.28;15.90;;;13.50;84.90;;;;;;5062933;28;20460;-60
2022/04/26 10:36:29;;;;;;;64.93;17.08;;;13.50;84.90;;;;;;5052382;28;20488;-60
2022/04/26 10:39:07;;;;;;;54.00;14.43;;;13.50;85.00;;;;;;5084986;28;20414;-60
2022/04/26 10:41:40;;;;;;;54.28;12.50;;;13.60;84.90;;;;;;5081480;28;20032;-60
2022/04/26 10:44:15;;;;;;;40.70;12.43;;;13.60;84.70;;;;;;5059336;28;20037;-60
2022/04/26 10:46:50;;;;;;;40.03;11.77;;;13.60;84.70;;;;;;5080986;28;20025;-60
2022/04/26 10:49:25;;;;;;;54.15;11.93;;;13.60;84.60;;;;;;5081819;28;21981;-60
2022/04/26 10:51:57;;;;;;;34.75;10.00;;;13.60;84.50;;;;;;5080183;28;20059;-60
2022/04/26 10:55:06;;;;;;;31.45;8.32;;;13.60;84.40;;;;;;5057924;28;20120;-60
2022/04/26 10:57:42;;;;;;;24.98;8.43;;;13.60;84.30;;;;;;5085100;28;20046;-60
2022/04/26 11:00:15;;;;;;;20.52;8.60;;;13.70;84.20;;;;;;5086080;28;20032;-60
2022/04/26 11:02:45;;;;;;;17.92;6.72;;;13.30;83.90;;;;;;5080372;28;20055;-60
2022/04/26 11:05:16;;;;;;;17.80;7.20;;;13.70;84.00;;;;;;5040617;28;20032;-60
2022/04/26 11:07:46;;;;;;;22.45;6.47;;;13.70;83.80;;;;;;5045723;28;20024;-60
2022/04/26 11:10:13;;;;;;;15.57;6.18;;;13.70;83.60;;;;;;5070647;28;20463;-60
2022/04/26 11:12:39;;;;;;;21.70;6.25;;;13.80;83.50;;;;;;5047332;28;20035;-60
2022/04/26 11:15:10;;;;;;;22.08;6.63;;;13.80;83.40;;;;;;5036602;28;20028;-60
2022/04/26 11:17:37;;;;;;;22.02;6.63;;;13.90;83.30;;;;;;5056264;28;20034;-60
2022/04/26 11:20:10;;;;;;;17.77;6.43;;;13.90;83.10;;;;;;5057417;28;20032;-60
2022/04/26 11:22:58;;;;;;;20.85;7.47;;;14.00;83.00;;;;;;5056394;28;20341;-60
2022/04/26 11:28:10;;;;;;;33.05;8.77;;;14.10;82.60;;;;;;5051531;28;20162;-59
2022/04/26 11:30:45;;;;;;;31.60;8.45;;;14.10;82.30;;;;;;5046563;28;20468;-60
2022/04/26 11:33:18;;;;;;;32.13;8.32;;;14.20;82.20;;;;;;5037378;28;20024;-63
2022/04/26 11:35:44;;;;;;;24.25;7.03;;;14.20;81.80;;;;;;5064042;28;20024;-60
2022/04/26 11:38:14;;;;;;;38.22;7.40;;;14.30;81.60;;;;;;5060036;28;20033;-60
2022/04/26 11:40:42;;;;;;;28.45;7.88;;;14.30;81.00;;;;;;5061467;28;20031;-60
2022/04/26 11:43:12;;;;;;;36.88;7.43;;;14.50;80.70;;;;;;5070751;28;20024;-60
2022/04/26 11:45:38;;;;;;;26.10;6.82;;;14.50;80.40;;;;;;5076155;28;20028;-61
2022/04/26 11:48:07;;;;;;;24.52;6.95;;;14.60;80.40;;;;;;5074552;28;20050;-60
2022/04/26 11:50:33;;;;;;;27.85;8.30;;;14.60;80.50;;;;;;5046985;28;20021;-60
2022/04/26 11:53:08;;;;;;;33.05;7.80;;;14.60;80.50;;;;;;5079338;28;20028;-60
2022/04/26 11:55:35;;;;;;;34.47;8.88;;;14.60;80.50;;;;;;5079704;28;20028;-60
2022/04/26 11:58:05;;;;;;;35.22;9.23;;;14.60;80.60;;;;;;5043000;28;20028;-60
2022/04/26 12:00:30;;;;;;;38.17;9.90;;;14.60;80.60;;;;;;5057140;28;20066;-61
2022/04/26 12:02:56;;;;;;;45.13;10.40;;;14.60;80.60;;;;;;5056714;28;20519;-60
2022/04/26 12:05:21;;;;;;;46.58;11.48;;;14.70;80.60;;;;;;5053034;28;20088;-60
2022/04/26 12:07:48;;;;;;;52.33;11.77;;;14.80;80.50;;;;;;5072320;28;20436;-60
2022/04/26 12:10:35;;;;;;;35.35;9.57;;;14.90;80.30;;;;;;5075909;28;20032;-60
2022/04/26 12:13:05;;;;;;;46.10;10.63;;;14.90;79.80;;;;;;5057111;28;20031;-60
2022/04/26 12:15:34;;;;;;;42.00;10.65;;;15.00;79.60;;;;;;5056147;28;20165;-60
2022/04/26 12:18:08;;;;;;;45.30;10.93;;;14.90;79.40;;;;;;5056405;28;20496;-60
2022/04/26 12:20:38;;;;;;;41.80;10.50;;;15.20;79.30;;;;;;5073940;28;20180;-60
2022/04/26 12:23:04;;;;;;;61.75;13.10;;;15.30;79.10;;;;;;5057871;28;20044;-60
2022/04/26 12:25:30;;;;;;;64.10;13.57;;;15.30;78.90;;;;;;5041192;28;20031;-60
2022/04/26 12:28:06;;;;;;;57.70;13.50;;;15.30;78.80;;;;;;5056321;28;20028;-60
2022/04/26 12:30:32;;;;;;;54.55;13.07;;;15.40;78.60;;;;;;5058727;28;20031;-61
2022/04/26 12:32:57;;;;;;;49.67;12.45;;;15.40;78.60;;;;;;5043672;28;20028;-60
2022/04/26 12:35:23;;;;;;;59.53;12.13;;;15.40;78.60;;;;;;5045528;28;20079;-61
2022/04/26 12:38:08;;;;;;;57.65;12.65;;;15.40;78.30;;;;;;5080949;28;20480;-61
2022/04/26 12:40:34;;;;;;;63.93;13.43;;;15.50;78.30;;;;;;5050330;28;20027;-60
2022/04/26 12:43:00;;;;;;;56.45;13.38;;;15.50;78.10;;;;;;5025221;28;20028;-60
2022/04/26 12:45:26;;;;;;;46.47;11.95;;;15.60;78.10;;;;;;5043375;28;20034;-60
2022/04/26 12:50:51;;;;;;;40.42;11.98;;;15.70;77.70;;;;;;5079078;28;20158;-61
2022/04/26 12:53:28;;;;;;;47.55;11.20;;;15.70;77.50;;;;;;5043733;28;20035;-61
2022/04/26 12:55:54;;;;;;;66.32;15.38;;;15.80;77.30;;;;;;5051144;28;20087;-60
2022/04/26 12:58:37;;;;;;;53.30;16.75;;;15.80;77.20;;;;;;5058470;28;20468;-60
2022/04/26 13:01:02;;;;;;;55.28;16.88;;;15.90;77.10;;;;;;5039124;28;20611;-61
2022/04/26 13:03:28;;;;;;;53.75;17.08;;;16.00;76.80;;;;;;5057551;28;20036;-60
2022/04/26 13:06:07;;;;;;;38.33;14.13;;;16.00;76.50;;;;;;5058080;28;20020;-61
2022/04/26 13:08:33;;;;;;;46.08;15.25;;;16.10;76.30;;;;;;5050911;28;20058;-60
2022/04/26 13:10:58;;;;;;;62.30;15.18;;;16.20;76.20;;;;;;5053360;28;20168;-60
2022/04/26 13:13:27;;;;;;;53.70;15.27;;;16.30;75.90;;;;;;5057650;28;20368;-61
2022/04/26 13:15:52;;;;;;;42.50;13.75;;;16.30;75.40;;;;;;5052208;28;20143;-61
2022/04/26 13:18:18;;;;;;;36.67;11.77;;;16.40;75.60;;;;;;5055794;28;20144;-60
2022/04/26 13:20:44;;;;;;;31.38;10.27;;;16.50;75.00;;;;;;5051811;28;20039;-61
2022/04/26 13:23:13;;;;;;;49.20;11.95;;;16.60;74.80;;;;;;5045207;28;20035;-60
2022/04/26 13:25:43;;;;;;;36.38;11.32;;;16.60;74.10;;;;;;5076312;28;20024;-60
2022/04/26 13:28:08;;;;;;;28.77;10.13;;;16.70;74.00;;;;;;5052122;28;20586;-61
2022/04/26 13:30:34;;;;;;;26.05;8.45;;;16.70;73.50;;;;;;5074489;28;20034;-61
2022/04/26 13:33:00;;;;;;;30.95;9.88;;;16.80;73.00;;;;;;5071370;28;20024;-61
2022/04/26 13:35:26;;;;;;;26.90;8.65;;;16.80;72.80;;;;;;5041914;28;20036;-61
2022/04/26 13:37:52;;;;;;;25.33;8.43;;;16.90;73.10;;;;;;5074228;28;20491;-60
2022/04/26 13:40:19;;;;;;;31.05;8.88;;;16.90;72.80;;;;;;5040779;28;20029;-61
2022/04/26 13:42:45;;;;;;;33.20;8.60;;;16.90;72.50;;;;;;5052166;28;20032;-60
2022/04/26 13:45:10;;;;;;;32.03;9.35;;;16.90;72.10;;;;;;5050369;28;20029;-61
2022/04/26 13:47:37;;;;;;;29.52;7.97;;;17.00;71.90;;;;;;5072575;28;20129;-61
2022/04/26 13:50:05;;;;;;;33.00;7.97;;;17.10;71.80;;;;;;5070527;28;20069;-60
2022/04/26 13:52:30;;;;;;;30.58;7.80;;;17.10;71.50;;;;;;5044359;28;20103;-61
2022/04/26 13:54:56;;;;;;;34.35;7.05;;;17.10;71.10;;;;;;5054691;28;20466;-61
2022/04/26 13:57:21;;;;;;;27.13;7.38;;;17.20;71.10;;;;;;5073690;28;20531;-61
2022/04/26 13:59:47;;;;;;;27.05;7.35;;;17.20;70.80;;;;;;5055176;28;20051;-61
2022/04/26 14:02:13;;;;;;;26.58;6.82;;;17.30;70.70;;;;;;5032924;28;20123;-60
2022/04/26 14:04:38;;;;;;;32.25;6.90;;;17.30;70.20;;;;;;5060230;28;20542;-61
2022/04/26 14:07:05;;;;;;;24.25;6.25;;;17.40;70.30;;;;;;5083247;28;21282;-61
2022/04/26 14:09:31;;;;;;;33.22;7.43;;;17.50;70.20;;;;;;5049596;28;20031;-61
2022/04/26 14:11:56;;;;;;;30.13;6.60;;;17.50;70.40;;;;;;5083045;28;20048;-61
2022/04/26 14:22:37;;;;;;;28.63;8.10;;;17.70;70.30;;;;;;5063547;28;20034;-60
2022/04/26 14:25:08;;;;;;;23.55;6.60;;;17.80;69.70;;;;;;5079973;28;20024;-60
2022/04/26 14:27:34;;;;;;;29.75;6.35;;;17.80;70.10;;;;;;5043825;28;20107;-61
2022/04/26 14:30:00;;;;;;;24.58;6.03;;;17.80;69.80;;;;;;5055788;28;20036;-61
2022/04/26 14:32:25;;;;;;;22.65;6.07;;;17.80;69.70;;;;;;5051320;28;20047;-60
2022/04/26 14:34:51;;;;;;;20.55;6.25;;;17.80;70.20;;;;;;5056819;28;20048;-60
2022/04/26 14:37:16;;;;;;;22.90;6.65;;;17.80;69.80;;;;;;5079866;28;20040;-60
2022/04/26 14:39:42;;;;;;;19.33;6.43;;;17.70;70.10;;;;;;5043488;28;20730;-61
2022/04/26 14:42:08;;;;;;;18.55;6.32;;;17.70;69.70;;;;;;5058374;28;20639;-61
2022/04/26 14:44:37;;;;;;;32.72;8.07;;;17.70;69.70;;;;;;5077787;28;20068;-60
2022/04/26 14:47:03;;;;;;;24.80;8.65;;;17.70;69.60;;;;;;5052288;28;20044;-61
2022/04/26 14:49:29;;;;;;;41.83;10.02;;;17.70;69.50;;;;;;5059032;28;20064;-61
2022/04/26 14:51:55;;;;;;;37.45;11.52;;;17.70;69.50;;;;;;5058610;28;20481;-61
2022/04/26 14:54:21;;;;;;;49.22;13.20;;;17.70;69.50;;;;;;5056018;28;20029;-60
2022/04/26 14:56:47;;;;;;;36.40;11.25;;;17.70;69.50;;;;;;5027128;28;20529;-60
2022/04/26 14:59:16;;;;;;;42.53;11.60;;;17.70;69.30;;;;;;5056946;28;20128;-60
2022/04/26 15:01:45;;;;;;;43.83;12.15;;;17.80;69.90;;;;;;5027433;28;20048;-61
2022/04/26 15:04:11;;;;;;;47.88;10.88;;;17.80;69.10;;;;;;5077628;28;20028;-61
2022/04/26 15:06:37;;;;;;;46.17;11.40;;;17.80;69.10;;;;;;5079486;28;20089;-60
2022/04/26 15:11:47;;;;;;;27.40;9.98;;;17.90;68.50;;;;;;5060478;28;20098;-61
2022/04/26 15:16:56;;;;;;;31.95;9.80;;;18.10;68.40;;;;;;5064816;28;20100;-61
2022/04/26 15:19:22;;;;;;;46.60;11.35;;;18.10;68.00;;;;;;5056398;28;20503;-61
2022/04/26 15:21:47;;;;;;;37.65;10.70;;;18.20;67.60;;;;;;5061847;28;20032;-61
2022/04/26 15:24:13;;;;;;;37.72;9.75;;;18.30;67.30;;;;;;5077330;28;20088;-61
2022/04/26 15:26:39;;;;;;;24.88;9.45;;;18.40;67.40;;;;;;5058672;28;20185;-61
2022/04/26 15:29:05;;;;;;;27.52;9.52;;;18.40;66.70;;;;;;5079792;28;20028;-62
2022/04/26 15:31:31;;;;;;;28.95;9.30;;;18.50;66.70;;;;;;5060999;28;20741;-61
2022/04/26 15:33:57;;;;;;;31.13;10.13;;;18.50;66.60;;;;;;5061056;28;20013;-61
2022/04/26 15:36:23;;;;;;;32.38;9.68;;;18.60;66.80;;;;;;5059522;28;20051;-61
2022/04/26 15:38:49;;;;;;;38.03;10.02;;;18.50;66.80;;;;;;5061192;28;20036;-61
2022/04/26 15:41:14;;;;;;;29.40;9.02;;;18.60;66.80;;;;;;5046316;28;20028;-62
2022/04/26 15:43:40;;;;;;;35.75;10.07;;;18.60;66.90;;;;;;5081863;28;20039;-61
2022/04/26 15:46:08;;;;;;;30.45;9.75;;;18.60;66.80;;;;;;5081706;28;20040;-62
2022/04/26 15:48:37;;;;;;;27.15;9.57;;;18.50;66.80;;;;;;5042983;28;20044;-61
2022/04/26 15:51:03;;;;;;;24.67;8.73;;;18.50;66.80;;;;;;5076606;28;20028;-62
2022/04/26 15:53:28;;;;;;;22.83;9.32;;;18.50;67.40;;;;;;5080274;28;20369;-61
2022/04/26 15:55:54;;;;;;;32.00;9.73;;;18.30;66.30;;;;;;5076621;28;20093;-61
2022/04/26 15:58:19;;;;;;;28.83;9.07;;;18.50;66.50;;;;;;5077501;28;20116;-61
2022/04/26 16:00:45;;;;;;;23.13;9.82;;;18.40;67.30;;;;;;5053973;28;20052;-61
2022/04/26 16:03:10;;;;;;;25.73;9.57;;;18.40;66.80;;;;;;5055806;28;20189;-61
2022/04/26 16:05:37;;;;;;;31.08;10.07;;;18.40;66.90;;;;;;5072187;28;20058;-61
2022/04/26 16:08:03;;;;;;;31.58;11.07;;;18.50;66.80;;;;;;5036183;28;20055;-62
2022/04/26 16:21:25;;;;;;;28.90;9.18;;;18.50;66.70;;;;;;5083519;28;20164;-61
2022/04/26 16:23:54;;;;;;;27.20;10.52;;;18.50;66.30;;;;;;5060973;28;20626;-61
2022/04/26 16:26:22;;;;;;;29.13;9.80;;;18.50;66.50;;;;;;5055171;28;20658;-62
2022/04/26 16:28:48;;;;;;;31.17;9.57;;;18.60;66.80;;;;;;5047911;28;20032;-61
2022/04/26 16:31:14;;;;;;;33.05;10.48;;;18.60;66.40;;;;;;5029155;28;20050;-61
2022/04/26 16:33:39;;;;;;;25.63;8.75;;;18.60;66.20;;;;;;5044097;28;20036;-61
2022/04/26 16:36:07;;;;;;;24.27;8.77;;;18.60;66.30;;;;;;5077989;28;20188;-61
2022/04/26 16:38:33;;;;;;;27.88;9.68;;;18.60;66.40;;;;;;5067037;28;20154;-61
2022/04/26 16:41:01;;;;;;;26.90;9.30;;;18.50;66.50;;;;;;5057118;28;20099;-62
2022/04/26 16:43:26;;;;;;;22.35;8.75;;;18.50;66.60;;;;;;5053188;28;20119;-61
2022/04/26 16:45:52;;;;;;;33.30;8.98;;;18.50;67.00;;;;;;5055307;28;20156;-62
2022/04/26 16:48:18;;;;;;;27.60;9.07;;;18.50;67.10;;;;;;5052246;28;20976;-61
2022/04/26 16:50:43;;;;;;;24.13;8.32;;;18.50;66.80;;;;;;5077678;28;20541;-62
2022/04/26 16:53:09;;;;;;;27.98;9.32;;;18.50;66.50;;;;;;5053647;28;20863;-62